sensor_id;sensor_type;location;lat;lon;timestamp;pressure;altitude;pressure_sealevel;temperature;humidity
61906;BME280;47863;55.766;37.672;2023-02-04T00:01:40;99342.94;;;0.15;86.48
61906;BME280;47863;55.766;37.672;2023-02-04T00:04:05;99336.94;;;0.13;86.33
61906;BME280;47863;55.766;37.672;2023-02-04T00:06:31;99313.88;;;0.04;86.12
61906;BME280;47863;55.766;37.672;2023-02-04T00:08:56;99310.63;;;0.01;86.11
61906;BME280;47863;55.766;37.672;2023-02-04T00:11:22;99323.03;;;0.11;86.63
61906;BME280;47863;55.766;37.672;2023-02-04T00:13:47;99344.94;;;0.25;86.21
61906;BME280;47863;55.766;37.672;2023-02-04T00:16:13;99307.03;;;0.02;86.48
61906;BME280;47863;55.766;37.672;2023-02-04T00:18:38;99332.41;;;0.15;86.23
61906;BME280;47863;55.766;37.672;2023-02-04T00:21:04;99342.63;;;0.20;86.29
61906;BME280;47863;55.766;37.672;2023-02-04T00:23:29;99335.91;;;0.16;86.65
61906;BME280;47863;55.766;37.672;2023-02-04T00:25:55;99349.38;;;0.24;86.27
61906;BME280;47863;55.766;37.672;2023-02-04T00:28:20;99340.75;;;0.22;86.29
61906;BME280;47863;55.766;37.672;2023-02-04T00:30:46;99265.53;;;-0.21;86.24
61906;BME280;47863;55.766;37.672;2023-02-04T00:33:12;99359.25;;;0.33;86.37
61906;BME280;47863;55.766;37.672;2023-02-04T00:35:38;99326.50;;;0.12;85.75
61906;BME280;47863;55.766;37.672;2023-02-04T00:38:04;99361.28;;;0.30;86.07
61906;BME280;47863;55.766;37.672;2023-02-04T00:40:30;99358.22;;;0.23;85.91
61906;BME280;47863;55.766;37.672;2023-02-04T00:42:56;99331.66;;;0.13;86.22
61906;BME280;47863;55.766;37.672;2023-02-04T00:45:22;99365.38;;;0.34;85.80
61906;BME280;47863;55.766;37.672;2023-02-04T00:47:47;99333.25;;;0.16;86.53
61906;BME280;47863;55.766;37.672;2023-02-04T00:50:13;99354.41;;;0.27;86.26
61906;BME280;47863;55.766;37.672;2023-02-04T00:52:38;99344.72;;;0.15;86.03
61906;BME280;47863;55.766;37.672;2023-02-04T00:55:04;99364.84;;;0.29;86.15
61906;BME280;47863;55.766;37.672;2023-02-04T00:57:32;99331.66;;;0.13;86.10
61906;BME280;47863;55.766;37.672;2023-02-04T00:59:57;99344.41;;;0.19;86.07
61906;BME280;47863;55.766;37.672;2023-02-04T01:02:23;99376.44;;;0.39;86.56
61906;BME280;47863;55.766;37.672;2023-02-04T01:04:49;99377.81;;;0.45;86.34
61906;BME280;47863;55.766;37.672;2023-02-04T01:07:14;99371.78;;;0.43;86.54
61906;BME280;47863;55.766;37.672;2023-02-04T01:09:40;99382.53;;;0.52;86.25
61906;BME280;47863;55.766;37.672;2023-02-04T01:12:05;99370.44;;;0.50;86.18
61906;BME280;47863;55.766;37.672;2023-02-04T01:14:31;99390.97;;;0.57;85.94
61906;BME280;47863;55.766;37.672;2023-02-04T01:16:56;99383.91;;;0.58;86.48
61906;BME280;47863;55.766;37.672;2023-02-04T01:19:22;99367.16;;;0.46;86.11
61906;BME280;47863;55.766;37.672;2023-02-04T01:21:47;99372.44;;;0.46;86.10
61906;BME280;47863;55.766;37.672;2023-02-04T01:24:13;99383.91;;;0.58;86.11
61906;BME280;47863;55.766;37.672;2023-02-04T01:26:39;99380.53;;;0.56;86.54
61906;BME280;47863;55.766;37.672;2023-02-04T01:29:04;99391.59;;;0.61;86.04
61906;BME280;47863;55.766;37.672;2023-02-04T01:31:30;99388.75;;;0.64;86.32
61906;BME280;47863;55.766;37.672;2023-02-04T01:33:58;99378.31;;;0.63;86.53
61906;BME280;47863;55.766;37.672;2023-02-04T01:36:25;99397.19;;;0.69;86.50
61906;BME280;47863;55.766;37.672;2023-02-04T01:38:51;99384.31;;;0.65;86.43
61906;BME280;47863;55.766;37.672;2023-02-04T01:41:17;99390.66;;;0.62;86.17
61906;BME280;47863;55.766;37.672;2023-02-04T01:43:44;99385.56;;;0.59;86.22
61906;BME280;47863;55.766;37.672;2023-02-04T01:46:10;99396.56;;;0.66;86.39
61906;BME280;47863;55.766;37.672;2023-02-04T01:48:36;99402.03;;;0.63;86.46
61906;BME280;47863;55.766;37.672;2023-02-04T01:51:05;99409.63;;;0.54;86.48
61906;BME280;47863;55.766;37.672;2023-02-04T01:53:32;99410.78;;;0.50;86.29
61906;BME280;47863;55.766;37.672;2023-02-04T01:55:58;99388.88;;;0.37;86.44
61906;BME280;47863;55.766;37.672;2023-02-04T01:58:24;99412.59;;;0.50;86.13
61906;BME280;47863;55.766;37.672;2023-02-04T02:00:50;99412.78;;;0.47;85.75
61906;BME280;47863;55.766;37.672;2023-02-04T02:03:15;99393.41;;;0.35;86.09
61906;BME280;47863;55.766;37.672;2023-02-04T02:05:45;99423.22;;;0.48;86.17
61906;BME280;47863;55.766;37.672;2023-02-04T02:08:12;99403.22;;;0.33;86.14
61906;BME280;47863;55.766;37.672;2023-02-04T02:10:41;99421.13;;;0.53;86.05
61906;BME280;47863;55.766;37.672;2023-02-04T02:13:12;99430.91;;;0.51;85.60
61906;BME280;47863;55.766;37.672;2023-02-04T02:15:38;99428.28;;;0.51;85.95
61906;BME280;47863;55.766;37.672;2023-02-04T02:18:04;99417.75;;;0.38;85.72
61906;BME280;47863;55.766;37.672;2023-02-04T02:20:29;99441.44;;;0.51;85.82
61906;BME280;47863;55.766;37.672;2023-02-04T02:23:13;99442.31;;;0.52;86.11
61906;BME280;47863;55.766;37.672;2023-02-04T02:25:42;99418.69;;;0.37;85.91
61906;BME280;47863;55.766;37.672;2023-02-04T02:28:15;99436.19;;;0.51;85.95
61906;BME280;47863;55.766;37.672;2023-02-04T02:30:41;99447.59;;;0.52;85.86
61906;BME280;47863;55.766;37.672;2023-02-04T02:33:13;99423.84;;;0.39;86.06
61906;BME280;47863;55.766;37.672;2023-02-04T02:35:40;99444.53;;;0.58;85.84
61906;BME280;47863;55.766;37.672;2023-02-04T02:38:12;99446.09;;;0.61;86.14
61906;BME280;47863;55.766;37.672;2023-02-04T02:40:38;99447.91;;;0.60;86.04
61906;BME280;47863;55.766;37.672;2023-02-04T02:43:04;99457.91;;;0.68;86.09
61906;BME280;47863;55.766;37.672;2023-02-04T02:45:31;99445.03;;;0.63;86.02
61906;BME280;47863;55.766;37.672;2023-02-04T02:47:59;99444.44;;;0.59;86.17
61906;BME280;47863;55.766;37.672;2023-02-04T02:50:28;99449.03;;;0.69;86.03
61906;BME280;47863;55.766;37.672;2023-02-04T02:52:55;99457.50;;;0.74;86.30
61906;BME280;47863;55.766;37.672;2023-02-04T02:55:24;99428.06;;;0.54;85.56
61906;BME280;47863;55.766;37.672;2023-02-04T02:57:51;99461.28;;;0.70;85.62
61906;BME280;47863;55.766;37.672;2023-02-04T03:00:18;99464.88;;;0.69;86.10
61906;BME280;47863;55.766;37.672;2023-02-04T03:02:54;99461.38;;;0.68;86.30
61906;BME280;47863;55.766;37.672;2023-02-04T03:05:20;99449.47;;;0.63;85.84
61906;BME280;47863;55.766;37.672;2023-02-04T03:07:46;99453.28;;;0.71;85.94
61906;BME280;47863;55.766;37.672;2023-02-04T03:10:12;99460.03;;;0.75;86.03
61906;BME280;47863;55.766;37.672;2023-02-04T03:12:38;99468.25;;;0.84;86.36
61906;BME280;47863;55.766;37.672;2023-02-04T03:15:04;99461.06;;;0.86;86.02
61906;BME280;47863;55.766;37.672;2023-02-04T03:17:30;99472.75;;;0.94;85.74
61906;BME280;47863;55.766;37.672;2023-02-04T03:19:57;99455.69;;;0.87;86.08
61906;BME280;47863;55.766;37.672;2023-02-04T03:22:23;99486.38;;;1.01;86.12
61906;BME280;47863;55.766;37.672;2023-02-04T03:24:48;99428.50;;;0.74;85.79
61906;BME280;47863;55.766;37.672;2023-02-04T03:27:14;99480.75;;;1.06;85.93
61906;BME280;47863;55.766;37.672;2023-02-04T03:29:42;99474.84;;;1.02;85.99
61906;BME280;47863;55.766;37.672;2023-02-04T03:32:08;99481.81;;;1.03;85.99
61906;BME280;47863;55.766;37.672;2023-02-04T03:34:34;99469.69;;;1.01;85.99
61906;BME280;47863;55.766;37.672;2023-02-04T03:36:59;99477.59;;;1.13;86.07
61906;BME280;47863;55.766;37.672;2023-02-04T03:39:25;99487.28;;;1.13;86.04
61906;BME280;47863;55.766;37.672;2023-02-04T03:41:50;99467.47;;;0.94;85.66
61906;BME280;47863;55.766;37.672;2023-02-04T03:44:16;99498.78;;;1.12;85.54
61906;BME280;47863;55.766;37.672;2023-02-04T03:46:43;99493.94;;;1.06;86.11
61906;BME280;47863;55.766;37.672;2023-02-04T03:49:08;99498.59;;;1.02;85.72
61906;BME280;47863;55.766;37.672;2023-02-04T03:51:34;99499.66;;;0.99;85.41
61906;BME280;47863;55.766;37.672;2023-02-04T03:53:59;99516.53;;;0.97;86.13
61906;BME280;47863;55.766;37.672;2023-02-04T03:56:25;99498.63;;;0.89;85.92
61906;BME280;47863;55.766;37.672;2023-02-04T03:58:50;99487.31;;;0.74;85.81
61906;BME280;47863;55.766;37.672;2023-02-04T04:01:16;99499.78;;;0.72;85.44
61906;BME280;47863;55.766;37.672;2023-02-04T04:03:41;99515.25;;;0.77;85.46
61906;BME280;47863;55.766;37.672;2023-02-04T04:06:07;99490.16;;;0.58;85.99
61906;BME280;47863;55.766;37.672;2023-02-04T04:08:34;99490.41;;;0.55;85.92
61906;BME280;47863;55.766;37.672;2023-02-04T04:11:00;99490.50;;;0.54;86.00
61906;BME280;47863;55.766;37.672;2023-02-04T04:13:26;99529.19;;;0.66;85.95
61906;BME280;47863;55.766;37.672;2023-02-04T04:15:51;99479.94;;;0.41;85.75
61906;BME280;47863;55.766;37.672;2023-02-04T04:18:17;99520.13;;;0.57;85.56
61906;BME280;47863;55.766;37.672;2023-02-04T04:20:42;99511.47;;;0.55;85.63
61906;BME280;47863;55.766;37.672;2023-02-04T04:23:08;99532.25;;;0.60;85.98
61906;BME280;47863;55.766;37.672;2023-02-04T04:25:33;99502.91;;;0.39;85.85
61906;BME280;47863;55.766;37.672;2023-02-04T04:27:59;99541.22;;;0.57;86.03
61906;BME280;47863;55.766;37.672;2023-02-04T04:30:24;99535.19;;;0.55;85.65
61906;BME280;47863;55.766;37.672;2023-02-04T04:32:50;99540.75;;;0.51;85.43
61906;BME280;47863;55.766;37.672;2023-02-04T04:35:15;99529.16;;;0.41;85.53
61906;BME280;47863;55.766;37.672;2023-02-04T04:37:41;99543.06;;;0.43;85.14
61906;BME280;47863;55.766;37.672;2023-02-04T04:40:09;99542.03;;;0.45;85.20
61906;BME280;47863;55.766;37.672;2023-02-04T04:42:35;99527.59;;;0.38;85.42
61906;BME280;47863;55.766;37.672;2023-02-04T04:45:01;99519.47;;;0.41;85.39
61906;BME280;47863;55.766;37.672;2023-02-04T04:47:29;99513.91;;;0.46;85.31
61906;BME280;47863;55.766;37.672;2023-02-04T04:49:54;99526.00;;;0.61;85.54
61906;BME280;47863;55.766;37.672;2023-02-04T04:52:20;99530.66;;;0.70;85.76
61906;BME280;47863;55.766;37.672;2023-02-04T04:54:45;99551.56;;;0.86;85.23
61906;BME280;47863;55.766;37.672;2023-02-04T04:57:11;99552.09;;;0.91;85.62
61906;BME280;47863;55.766;37.672;2023-02-04T04:59:36;99552.84;;;0.93;85.38
61906;BME280;47863;55.766;37.672;2023-02-04T05:02:02;99549.47;;;0.91;85.74
61906;BME280;47863;55.766;37.672;2023-02-04T05:04:27;99516.31;;;0.74;85.67
61906;BME280;47863;55.766;37.672;2023-02-04T05:06:53;99546.72;;;0.93;85.75
61906;BME280;47863;55.766;37.672;2023-02-04T05:09:18;99569.06;;;1.00;85.40
61906;BME280;47863;55.766;37.672;2023-02-04T05:11:44;99533.41;;;0.82;85.91
61906;BME280;47863;55.766;37.672;2023-02-04T05:14:10;99564.31;;;1.05;85.85
61906;BME280;47863;55.766;37.672;2023-02-04T05:16:35;99562.72;;;1.03;85.70
61906;BME280;47863;55.766;37.672;2023-02-04T05:19:01;99568.34;;;1.11;85.54
61906;BME280;47863;55.766;37.672;2023-02-04T05:21:26;99568.22;;;1.12;85.41
61906;BME280;47863;55.766;37.672;2023-02-04T05:23:52;99558.19;;;1.05;85.28
61906;BME280;47863;55.766;37.672;2023-02-04T05:26:17;99576.13;;;1.12;85.15
61906;BME280;47863;55.766;37.672;2023-02-04T05:28:43;99547.31;;;0.96;85.39
61906;BME280;47863;55.766;37.672;2023-02-04T05:31:08;99495.03;;;0.65;85.26
61906;BME280;47863;55.766;37.672;2023-02-04T05:33:34;99589.75;;;1.19;85.62
61906;BME280;47863;55.766;37.672;2023-02-04T05:36:00;99601.25;;;1.18;85.63
61906;BME280;47863;55.766;37.672;2023-02-04T05:38:25;99599.56;;;1.17;85.30
61906;BME280;47863;55.766;37.672;2023-02-04T05:40:51;99576.13;;;0.99;85.30
61906;BME280;47863;55.766;37.672;2023-02-04T05:43:17;99600.50;;;1.16;85.47
61906;BME280;47863;55.766;37.672;2023-02-04T05:45:42;99603.25;;;1.14;85.33
61906;BME280;47863;55.766;37.672;2023-02-04T05:48:08;99605.38;;;1.09;85.22
61906;BME280;47863;55.766;37.672;2023-02-04T05:50:33;99587.84;;;0.95;85.37
61906;BME280;47863;55.766;37.672;2023-02-04T05:52:59;99602.94;;;0.93;85.18
61906;BME280;47863;55.766;37.672;2023-02-04T05:55:24;99613.25;;;0.96;85.24
61906;BME280;47863;55.766;37.672;2023-02-04T05:57:52;99610.41;;;0.87;85.26
61906;BME280;47863;55.766;37.672;2023-02-04T06:00:17;99622.75;;;0.86;85.55
61906;BME280;47863;55.766;37.672;2023-02-04T06:02:43;99624.56;;;0.86;85.29
61906;BME280;47863;55.766;37.672;2023-02-04T06:05:08;99625.63;;;0.83;85.67
61906;BME280;47863;55.766;37.672;2023-02-04T06:07:34;99626.78;;;0.79;85.37
61906;BME280;47863;55.766;37.672;2023-02-04T06:10:00;99620.94;;;0.74;85.17
61906;BME280;47863;55.766;37.672;2023-02-04T06:12:25;99636.75;;;0.74;85.64
61906;BME280;47863;55.766;37.672;2023-02-04T06:14:51;99637.81;;;0.71;85.31
61906;BME280;47863;55.766;37.672;2023-02-04T06:17:17;99611.81;;;0.52;85.36
61906;BME280;47863;55.766;37.672;2023-02-04T06:19:42;99653.75;;;0.70;85.67
61906;BME280;47863;55.766;37.672;2023-02-04T06:22:08;99613.28;;;0.44;85.55
61906;BME280;47863;55.766;37.672;2023-02-04T06:24:33;99633.56;;;0.56;85.46
61906;BME280;47863;55.766;37.672;2023-02-04T06:26:59;99632.16;;;0.50;85.32
61906;BME280;47863;55.766;37.672;2023-02-04T06:29:24;99645.91;;;0.55;84.99
61906;BME280;47863;55.766;37.672;2023-02-04T06:31:50;99671.63;;;0.65;84.88
61906;BME280;47863;55.766;37.672;2023-02-04T06:34:15;99670.16;;;0.61;85.41
61906;BME280;47863;55.766;37.672;2023-02-04T06:36:41;99663.19;;;0.59;85.11
61906;BME280;47863;55.766;37.672;2023-02-04T06:39:06;99672.59;;;0.64;85.29
61906;BME280;47863;55.766;37.672;2023-02-04T06:41:32;99646.19;;;0.51;84.87
61906;BME280;47863;55.766;37.672;2023-02-04T06:43:57;99677.66;;;0.67;85.24
61906;BME280;47863;55.766;37.672;2023-02-04T06:46:23;99678.31;;;0.70;84.95
61906;BME280;47863;55.766;37.672;2023-02-04T06:48:48;99665.44;;;0.66;85.16
61906;BME280;47863;55.766;37.672;2023-02-04T06:51:14;99684.97;;;0.76;84.66
61906;BME280;47863;55.766;37.672;2023-02-04T06:53:39;99680.03;;;0.84;85.01
61906;BME280;47863;55.766;37.672;2023-02-04T06:56:08;99665.16;;;0.83;84.93
61906;BME280;47863;55.766;37.672;2023-02-04T06:58:34;99687.44;;;0.92;84.56
61906;BME280;47863;55.766;37.672;2023-02-04T07:01:00;99696.41;;;1.02;84.55
61906;BME280;47863;55.766;37.672;2023-02-04T07:03:26;99695.06;;;1.09;84.75
61906;BME280;47863;55.766;37.672;2023-02-04T07:05:51;99697.59;;;1.11;84.45
61906;BME280;47863;55.766;37.672;2023-02-04T07:08:18;99698.13;;;1.16;84.40
61906;BME280;47863;55.766;37.672;2023-02-04T07:10:46;99706.34;;;1.24;84.16
61906;BME280;47863;55.766;37.672;2023-02-04T07:13:12;99704.16;;;1.31;84.12
61906;BME280;47863;55.766;37.672;2023-02-04T07:15:37;99713.56;;;1.35;84.36
61906;BME280;47863;55.766;37.672;2023-02-04T07:18:03;99702.69;;;1.39;84.33
61906;BME280;47863;55.766;37.672;2023-02-04T07:20:28;99716.84;;;1.51;84.06
61906;BME280;47863;55.766;37.672;2023-02-04T07:22:54;99719.91;;;1.58;84.31
61906;BME280;47863;55.766;37.672;2023-02-04T07:25:19;99693.91;;;1.52;84.58
61906;BME280;47863;55.766;37.672;2023-02-04T07:27:45;99726.66;;;1.75;84.20
61906;BME280;47863;55.766;37.672;2023-02-04T07:30:11;99728.78;;;1.83;83.84
61906;BME280;47863;55.766;37.672;2023-02-04T07:32:37;99729.19;;;1.89;83.74
61906;BME280;47863;55.766;37.672;2023-02-04T07:35:03;99734.91;;;1.96;83.60
61906;BME280;47863;55.766;37.672;2023-02-04T07:37:29;99733.72;;;2.00;83.50
61906;BME280;47863;55.766;37.672;2023-02-04T07:39:54;99728.00;;;2.06;83.77
61906;BME280;47863;55.766;37.672;2023-02-04T07:42:20;99702.53;;;2.05;83.79
61906;BME280;47863;55.766;37.672;2023-02-04T07:44:45;99736.91;;;2.42;83.88
61906;BME280;47863;55.766;37.672;2023-02-04T07:47:11;99737.47;;;2.58;83.46
61906;BME280;47863;55.766;37.672;2023-02-04T07:49:37;99740.59;;;2.76;83.45
61906;BME280;47863;55.766;37.672;2023-02-04T07:52:03;99727.38;;;2.76;82.70
61906;BME280;47863;55.766;37.672;2023-02-04T07:54:28;99745.72;;;2.91;82.34
61906;BME280;47863;55.766;37.672;2023-02-04T07:56:54;99745.88;;;3.01;82.91
61906;BME280;47863;55.766;37.672;2023-02-04T07:59:19;99747.22;;;3.06;82.51
61906;BME280;47863;55.766;37.672;2023-02-04T08:01:45;99732.91;;;3.09;82.87
61906;BME280;47863;55.766;37.672;2023-02-04T08:04:12;99742.41;;;3.11;82.26
61906;BME280;47863;55.766;37.672;2023-02-04T08:06:37;99738.78;;;3.01;82.28
61906;BME280;47863;55.766;37.672;2023-02-04T08:09:03;99741.78;;;3.08;82.68
61906;BME280;47863;55.766;37.672;2023-02-04T08:11:29;99753.13;;;3.10;82.84
61906;BME280;47863;55.766;37.672;2023-02-04T08:13:55;99751.72;;;3.17;82.68
61906;BME280;47863;55.766;37.672;2023-02-04T08:16:21;99756.66;;;3.22;82.65
61906;BME280;47863;55.766;37.672;2023-02-04T08:18:46;99752.69;;;3.27;82.50
61906;BME280;47863;55.766;37.672;2023-02-04T08:21:12;99742.88;;;3.41;82.62
61906;BME280;47863;55.766;37.672;2023-02-04T08:23:37;99724.34;;;3.41;82.37
61906;BME280;47863;55.766;37.672;2023-02-04T08:26:08;99736.41;;;3.56;82.06
61906;BME280;47863;55.766;37.672;2023-02-04T08:28:35;99754.16;;;3.78;82.14
61906;BME280;47863;55.766;37.672;2023-02-04T08:31:03;99761.41;;;3.87;82.22
61906;BME280;47863;55.766;37.672;2023-02-04T08:33:29;99760.81;;;3.95;81.66
61906;BME280;47863;55.766;37.672;2023-02-04T08:35:54;99761.03;;;4.03;81.71
61906;BME280;47863;55.766;37.672;2023-02-04T08:38:20;99760.06;;;4.04;81.73
61906;BME280;47863;55.766;37.672;2023-02-04T08:40:46;99764.63;;;4.02;81.74
61906;BME280;47863;55.766;37.672;2023-02-04T08:43:11;99774.88;;;3.95;81.21
61906;BME280;47863;55.766;37.672;2023-02-04T08:45:37;99770.28;;;3.86;81.61
61906;BME280;47863;55.766;37.672;2023-02-04T08:48:03;99770.41;;;3.73;81.47
61906;BME280;47863;55.766;37.672;2023-02-04T08:50:28;99753.63;;;3.50;81.65
61906;BME280;47863;55.766;37.672;2023-02-04T08:52:55;99773.25;;;3.48;81.88
61906;BME280;47863;55.766;37.672;2023-02-04T08:55:21;99704.28;;;3.03;81.35
61906;BME280;47863;55.766;37.672;2023-02-04T08:57:46;99776.84;;;3.47;81.52
61906;BME280;47863;55.766;37.672;2023-02-04T09:00:12;99788.41;;;3.57;81.52
61906;BME280;47863;55.766;37.672;2023-02-04T09:02:38;99783.00;;;3.58;81.51
61906;BME280;47863;55.766;37.672;2023-02-04T09:05:04;99781.91;;;3.61;81.56
61906;BME280;47863;55.766;37.672;2023-02-04T09:07:29;99784.94;;;3.56;81.04
61906;BME280;47863;55.766;37.672;2023-02-04T09:09:55;99781.91;;;3.50;81.17
61906;BME280;47863;55.766;37.672;2023-02-04T09:12:21;99781.41;;;3.45;81.58
61906;BME280;47863;55.766;37.672;2023-02-04T09:14:46;99757.69;;;3.08;80.97
61906;BME280;47863;55.766;37.672;2023-02-04T09:17:12;99799.13;;;3.20;81.51
61906;BME280;47863;55.766;37.672;2023-02-04T09:19:37;99787.88;;;3.05;81.75
61906;BME280;47863;55.766;37.672;2023-02-04T09:22:03;99778.75;;;2.85;81.94
61906;BME280;47863;55.766;37.672;2023-02-04T09:24:28;99809.59;;;2.97;81.50
61906;BME280;47863;55.766;37.672;2023-02-04T09:26:54;99803.47;;;2.97;81.38
61906;BME280;47863;55.766;37.672;2023-02-04T09:29:20;99806.75;;;3.01;81.49
61906;BME280;47863;55.766;37.672;2023-02-04T09:31:45;99809.28;;;3.02;81.34
61906;BME280;47863;55.766;37.672;2023-02-04T09:34:11;99803.38;;;2.98;81.42
61906;BME280;47863;55.766;37.672;2023-02-04T09:36:36;99773.06;;;2.78;81.26
61906;BME280;47863;55.766;37.672;2023-02-04T09:39:04;99810.78;;;2.93;81.21
61906;BME280;47863;55.766;37.672;2023-02-04T09:41:32;99811.41;;;2.97;81.49
61906;BME280;47863;55.766;37.672;2023-02-04T09:43:59;99813.53;;;2.92;81.29
61906;BME280;47863;55.766;37.672;2023-02-04T09:46:25;99811.69;;;2.81;81.15
61906;BME280;47863;55.766;37.672;2023-02-04T09:48:55;99810.22;;;2.77;81.23
61906;BME280;47863;55.766;37.672;2023-02-04T09:51:29;99738.63;;;2.30;81.15
61906;BME280;47863;55.766;37.672;2023-02-04T09:54:15;99821.09;;;2.72;81.29
61906;BME280;47863;55.766;37.672;2023-02-04T09:56:41;99823.16;;;2.69;81.40
61906;BME280;47863;55.766;37.672;2023-02-04T09:59:21;99829.19;;;2.71;80.92
61906;BME280;47863;55.766;37.672;2023-02-04T10:01:54;99825.56;;;2.72;81.29
61906;BME280;47863;55.766;37.672;2023-02-04T10:04:22;99830.84;;;2.72;81.17
61906;BME280;47863;55.766;37.672;2023-02-04T10:06:48;99830.00;;;2.71;81.34
61906;BME280;47863;55.766;37.672;2023-02-04T10:09:14;99830.00;;;2.71;81.14
61906;BME280;47863;55.766;37.672;2023-02-04T10:11:41;99830.22;;;2.68;81.36
61906;BME280;47863;55.766;37.672;2023-02-04T10:14:12;99838.50;;;2.64;81.02
61906;BME280;47863;55.766;37.672;2023-02-04T10:16:39;99831.53;;;2.63;81.38
61906;BME280;47863;55.766;37.672;2023-02-04T10:19:12;99803.00;;;2.42;81.31
61906;BME280;47863;55.766;37.672;2023-02-04T10:21:39;99831.72;;;2.60;81.45
61906;BME280;47863;55.766;37.672;2023-02-04T10:24:19;99833.94;;;2.66;80.37
61906;BME280;47863;55.766;37.672;2023-02-04T10:26:45;99833.84;;;2.67;81.08
61906;BME280;47863;55.766;37.672;2023-02-04T10:29:22;99826.97;;;2.65;79.45
61906;BME280;47863;55.766;37.672;2023-02-04T10:31:50;99837.16;;;2.82;81.16
61906;BME280;47863;55.766;37.672;2023-02-04T10:34:20;99849.00;;;2.89;80.53
61906;BME280;47863;55.766;37.672;2023-02-04T10:36:53;99847.63;;;2.96;80.35
61906;BME280;47863;55.766;37.672;2023-02-04T10:39:21;99844.56;;;3.14;80.00
61906;BME280;47863;55.766;37.672;2023-02-04T10:41:56;99855.19;;;3.38;79.52
61906;BME280;47863;55.766;37.672;2023-02-04T10:44:29;99858.56;;;3.75;79.08
61906;BME280;47863;55.766;37.672;2023-02-04T10:47:16;99863.56;;;4.14;75.86
61906;BME280;47863;55.766;37.672;2023-02-04T10:50:01;99854.44;;;4.63;78.01
61906;BME280;47863;55.766;37.672;2023-02-04T10:52:35;99876.06;;;5.25;77.50
61906;BME280;47863;55.766;37.672;2023-02-04T10:55:03;99855.19;;;5.85;76.67
61906;BME280;47863;55.766;37.672;2023-02-04T10:57:31;99871.06;;;6.38;75.55
61906;BME280;47863;55.766;37.672;2023-02-04T11:00:02;99852.53;;;6.58;75.40
61906;BME280;47863;55.766;37.672;2023-02-04T11:04:58;99859.84;;;6.65;75.44
61906;BME280;47863;55.766;37.672;2023-02-04T11:07:24;99842.84;;;6.57;74.52
61906;BME280;47863;55.766;37.672;2023-02-04T11:09:49;99877.63;;;6.65;75.92
61906;BME280;47863;55.766;37.672;2023-02-04T11:12:22;99886.22;;;6.47;75.63
61906;BME280;47863;55.766;37.672;2023-02-04T11:14:55;99879.59;;;6.32;75.55
61906;BME280;47863;55.766;37.672;2023-02-04T11:17:28;99892.25;;;6.19;76.39
61906;BME280;47863;55.766;37.672;2023-02-04T11:19:56;99889.91;;;6.04;77.23
61906;BME280;47863;55.766;37.672;2023-02-04T11:22:24;99888.63;;;5.87;76.63
61906;BME280;47863;55.766;37.672;2023-02-04T11:25:00;99891.72;;;5.71;76.45
61906;BME280;47863;55.766;37.672;2023-02-04T11:27:37;99896.16;;;5.50;76.32
61906;BME280;47863;55.766;37.672;2023-02-04T11:30:16;99896.34;;;5.26;77.67
61906;BME280;47863;55.766;37.672;2023-02-04T11:32:43;99882.88;;;4.84;77.03
61906;BME280;47863;55.766;37.672;2023-02-04T11:35:23;99894.50;;;4.60;77.79
61906;BME280;47863;55.766;37.672;2023-02-04T11:37:48;99889.53;;;4.33;77.87
61906;BME280;47863;55.766;37.672;2023-02-04T11:40:30;99905.53;;;4.20;77.52
61906;BME280;47863;55.766;37.672;2023-02-04T11:43:07;99907.16;;;3.98;77.64
61906;BME280;47863;55.766;37.672;2023-02-04T11:45:35;99904.09;;;3.81;78.55
61906;BME280;47863;55.766;37.672;2023-02-04T11:48:09;99917.91;;;3.73;79.09
61906;BME280;47863;55.766;37.672;2023-02-04T11:50:35;99906.50;;;3.48;78.56
61906;BME280;47863;55.766;37.672;2023-02-04T11:53:09;99922.84;;;3.42;79.11
61906;BME280;47863;55.766;37.672;2023-02-04T11:55:36;99906.94;;;3.18;78.86
61906;BME280;47863;55.766;37.672;2023-02-04T11:58:14;99922.41;;;3.11;78.91
61906;BME280;47863;55.766;37.672;2023-02-04T12:00:40;99907.59;;;2.96;79.17
61906;BME280;47863;55.766;37.672;2023-02-04T12:03:26;99894.81;;;2.90;79.01
61906;BME280;47863;55.766;37.672;2023-02-04T12:05:55;99911.31;;;2.93;79.38
61906;BME280;47863;55.766;37.672;2023-02-04T12:10:50;99935.13;;;3.06;79.02
61906;BME280;47863;55.766;37.672;2023-02-04T12:13:23;99931.94;;;3.01;79.31
61906;BME280;47863;55.766;37.672;2023-02-04T12:16:03;99942.44;;;3.03;77.78
61906;BME280;47863;55.766;37.672;2023-02-04T12:18:30;99934.06;;;2.96;78.53
61906;BME280;47863;55.766;37.672;2023-02-04T12:20:56;99943.63;;;2.98;78.41
61906;BME280;47863;55.766;37.672;2023-02-04T12:23:23;99947.44;;;2.94;78.52
61906;BME280;47863;55.766;37.672;2023-02-04T12:25:49;99884.97;;;2.55;78.83
61906;BME280;47863;55.766;37.672;2023-02-04T12:28:15;99952.09;;;2.91;78.74
61906;BME280;47863;55.766;37.672;2023-02-04T12:30:41;99945.63;;;2.82;78.95
61906;BME280;47863;55.766;37.672;2023-02-04T12:33:06;99917.72;;;2.65;78.88
61906;BME280;47863;55.766;37.672;2023-02-04T12:35:33;99954.44;;;2.83;78.63
61906;BME280;47863;55.766;37.672;2023-02-04T12:37:59;99960.69;;;2.69;78.56
61906;BME280;47863;55.766;37.672;2023-02-04T12:40:25;99963.75;;;2.63;78.41
61906;BME280;47863;55.766;37.672;2023-02-04T12:42:50;99967.78;;;2.55;78.49
61906;BME280;47863;55.766;37.672;2023-02-04T12:45:16;99973.59;;;2.48;78.49
61906;BME280;47863;55.766;37.672;2023-02-04T12:47:42;99962.66;;;2.27;78.59
61906;BME280;47863;55.766;37.672;2023-02-04T12:50:11;99974.94;;;2.28;78.82
61906;BME280;47863;55.766;37.672;2023-02-04T12:52:37;99978.84;;;2.22;78.71
61906;BME280;47863;55.766;37.672;2023-02-04T12:55:05;99986.13;;;2.18;79.20
61906;BME280;47863;55.766;37.672;2023-02-04T12:57:32;99980.31;;;2.13;79.00
61906;BME280;47863;55.766;37.672;2023-02-04T12:59:58;99993.94;;;2.20;79.08
61906;BME280;47863;55.766;37.672;2023-02-04T13:02:29;99996.59;;;2.20;79.12
61906;BME280;47863;55.766;37.672;2023-02-04T13:04:54;100000.06;;;2.21;79.22